createdAt,value
2023-10-06T00:00:48.888Z,3.50
2023-10-06T00:03:17.329Z,2.33
2023-10-06T00:05:49.455Z,2.40
2023-10-06T00:08:19.180Z,2.57
2023-10-06T00:10:52.488Z,3.90
2023-10-06T00:13:30.116Z,3.30
2023-10-06T00:15:59.456Z,4.10
2023-10-06T00:18:29.186Z,3.27
2023-10-06T00:20:58.698Z,2.70
2023-10-06T00:23:29.529Z,2.90
2023-10-06T00:25:57.902Z,2.70
2023-10-06T00:28:33.535Z,3.13
2023-10-06T00:31:09.433Z,3.40
2023-10-06T00:33:39.639Z,4.27
2023-10-06T00:36:12.759Z,3.37
2023-10-06T00:38:41.386Z,3.80
2023-10-06T00:41:09.865Z,3.23
2023-10-06T00:43:40.991Z,2.87
2023-10-06T00:46:09.701Z,2.83
2023-10-06T00:48:40.882Z,2.97
2023-10-06T00:51:13.778Z,2.73
2023-10-06T00:53:42.539Z,2.40
2023-10-06T00:56:16.410Z,2.67
2023-10-06T00:58:46.604Z,3.07
2023-10-06T01:01:18.263Z,3.63
2023-10-06T01:03:50.366Z,3.70
2023-10-06T01:06:24.120Z,2.23
2023-10-06T01:09:07.909Z,2.33
2023-10-06T01:11:42.444Z,2.50
2023-10-06T01:14:12.277Z,3.20
2023-10-06T01:16:40.666Z,3.70
2023-10-06T01:19:27.482Z,3.60
2023-10-06T01:21:57.349Z,3.80
2023-10-06T01:24:28.150Z,2.73
2023-10-06T01:27:00.242Z,2.97
2023-10-06T01:29:31.372Z,2.60
2023-10-06T01:32:04.902Z,2.03
2023-10-06T01:34:38.564Z,2.93
2023-10-06T01:37:08.614Z,3.30
2023-10-06T01:39:44.606Z,3.07
2023-10-06T01:42:18.269Z,3.17
2023-10-06T01:44:47.037Z,3.03
2023-10-06T01:47:19.645Z,3.00
2023-10-06T01:49:49.005Z,2.80
2023-10-06T01:52:20.782Z,2.87
2023-10-06T01:54:53.055Z,3.43
2023-10-06T01:57:21.437Z,2.80
2023-10-06T01:59:50.405Z,2.40
2023-10-06T02:02:24.934Z,2.50
2023-10-06T02:04:58.146Z,2.40
2023-10-06T02:07:26.483Z,2.27
2023-10-06T02:09:56.297Z,3.60
2023-10-06T02:12:24.582Z,3.03
2023-10-06T02:14:52.708Z,3.70
2023-10-06T02:17:20.870Z,3.13
2023-10-06T02:19:49.069Z,3.10
2023-10-06T02:22:19.627Z,2.80
2023-10-06T02:24:47.715Z,3.30
2023-10-06T02:27:17.356Z,3.40
2023-10-06T02:29:45.776Z,3.63
2023-10-06T02:32:14.816Z,2.70
2023-10-06T02:34:46.240Z,3.10
2023-10-06T02:37:19.044Z,2.70
2023-10-06T02:39:47.637Z,3.60
2023-10-06T02:42:20.592Z,3.50
2023-10-06T02:44:50.347Z,4.40
2023-10-06T02:47:19.206Z,3.03
2023-10-06T02:49:50.683Z,2.83
2023-10-06T02:52:21.754Z,3.10
2023-10-06T02:54:59.851Z,3.30
2023-10-06T02:57:35.954Z,2.10
2023-10-06T03:00:27.888Z,2.40
2023-10-06T03:02:57.562Z,2.43
2023-10-06T03:05:33.189Z,2.83
2023-10-06T03:08:02.997Z,2.80
2023-10-06T03:10:37.087Z,2.30
2023-10-06T03:13:09.796Z,2.40
2023-10-06T03:15:46.501Z,2.50
2023-10-06T03:18:16.174Z,2.87
2023-10-06T03:20:48.133Z,4.03
2023-10-06T03:23:27.658Z,2.80
2023-10-06T03:25:57.444Z,2.40
2023-10-06T03:28:33.512Z,2.53
2023-10-06T03:31:05.659Z,2.60
2023-10-06T03:33:34.143Z,2.30
2023-10-06T03:36:02.511Z,2.27
2023-10-06T03:38:36.126Z,3.20
2023-10-06T03:41:23.190Z,3.10
2023-10-06T03:43:54.438Z,3.10
2023-10-06T03:46:24.474Z,3.00
2023-10-06T03:48:53.437Z,2.67
2023-10-06T03:51:22.359Z,3.17
2023-10-06T03:53:50.859Z,1.90
2023-10-06T03:56:19.061Z,2.33
2023-10-06T03:58:47.589Z,2.20
2023-10-06T04:01:21.232Z,2.27
2023-10-06T04:03:49.650Z,2.40
2023-10-06T04:06:18.006Z,1.97
2023-10-06T04:08:47.708Z,2.10
2023-10-06T04:11:16.372Z,2.93
2023-10-06T04:13:45.175Z,2.80
2023-10-06T04:16:15.438Z,2.80
2023-10-06T04:18:49.161Z,2.30
2023-10-06T04:21:17.931Z,2.40
2023-10-06T04:23:46.359Z,3.20
2023-10-06T04:26:16.776Z,2.83
2023-10-06T04:28:48.351Z,2.70
2023-10-06T04:31:17.725Z,1.83
2023-10-06T04:33:47.743Z,2.30
2023-10-06T04:36:21.958Z,2.87
2023-10-06T04:38:52.084Z,2.40
2023-10-06T04:41:21.773Z,2.43
2023-10-06T04:43:53.224Z,2.43
2023-10-06T04:46:21.709Z,2.47
2023-10-06T04:48:51.596Z,2.73
2023-10-06T04:51:19.973Z,2.67
2023-10-06T04:53:48.428Z,2.40
2023-10-06T04:56:17.736Z,2.83
2023-10-06T04:58:46.138Z,2.80
2023-10-06T05:01:14.655Z,2.57
2023-10-06T05:03:45.017Z,3.00
2023-10-06T05:06:18.291Z,2.73
2023-10-06T05:08:48.978Z,2.40
2023-10-06T05:11:18.531Z,3.07
2023-10-06T05:13:49.177Z,3.20
2023-10-06T05:16:20.000Z,3.37
2023-10-06T05:18:49.049Z,3.30
2023-10-06T05:21:20.293Z,2.93
2023-10-06T05:23:49.212Z,2.63
2023-10-06T05:26:20.176Z,2.60
2023-10-06T05:28:48.550Z,2.63
2023-10-06T05:31:17.664Z,3.10
2023-10-06T05:33:45.784Z,2.50
2023-10-06T05:36:21.120Z,3.03
2023-10-06T05:38:52.781Z,2.17
2023-10-06T05:41:22.585Z,3.17
2023-10-06T05:43:51.159Z,2.63
2023-10-06T05:46:20.665Z,2.80
2023-10-06T05:48:48.806Z,2.53
2023-10-06T05:51:22.546Z,3.10
2023-10-06T05:53:53.171Z,1.90
2023-10-06T05:56:21.590Z,2.30
2023-10-06T05:58:50.785Z,2.87
2023-10-06T06:01:21.935Z,2.70
2023-10-06T06:03:51.438Z,3.23
2023-10-06T06:06:25.726Z,2.27
2023-10-06T06:08:53.957Z,2.20
2023-10-06T06:11:22.435Z,2.83
2023-10-06T06:14:02.331Z,3.40
2023-10-06T06:16:35.501Z,3.07
2023-10-06T06:19:06.825Z,3.60
2023-10-06T06:21:36.590Z,3.20
2023-10-06T06:24:07.354Z,3.60
2023-10-06T06:26:37.791Z,3.07
2023-10-06T06:29:06.137Z,2.67
2023-10-06T06:31:34.904Z,3.10
2023-10-06T06:34:05.867Z,2.90
2023-10-06T06:36:34.873Z,3.10
2023-10-06T06:39:04.726Z,4.00
2023-10-06T06:41:34.470Z,3.20
2023-10-06T06:44:02.898Z,3.70
2023-10-06T06:46:31.766Z,3.40
2023-10-06T06:49:01.399Z,4.10
2023-10-06T06:51:32.330Z,4.10
2023-10-06T06:54:01.013Z,3.27
2023-10-06T06:56:31.382Z,3.77
2023-10-06T06:59:01.846Z,3.17
2023-10-06T07:01:30.445Z,3.57
2023-10-06T07:04:02.513Z,4.30
2023-10-06T07:06:33.676Z,5.30
2023-10-06T07:09:02.005Z,4.30
2023-10-06T07:11:31.478Z,3.80
2023-10-06T07:14:01.080Z,3.80
2023-10-06T07:16:29.534Z,4.40
2023-10-06T07:18:57.791Z,5.50
2023-10-06T07:21:25.992Z,5.93
2023-10-06T07:23:57.550Z,4.70
2023-10-06T07:26:26.258Z,5.60
2023-10-06T07:28:57.727Z,5.60
2023-10-06T07:31:28.209Z,5.57
2023-10-06T07:33:59.205Z,5.03
2023-10-06T07:36:29.170Z,4.60
2023-10-06T07:38:58.600Z,4.60
2023-10-06T07:41:26.935Z,6.20
2023-10-06T07:43:57.438Z,4.77
2023-10-06T07:46:25.828Z,6.00
2023-10-06T07:48:57.123Z,5.57
2023-10-06T07:51:27.526Z,5.90
2023-10-06T07:53:56.026Z,4.63
2023-10-06T07:56:24.255Z,5.30
2023-10-06T07:58:54.134Z,5.40
2023-10-06T08:01:23.839Z,6.10
2023-10-06T08:03:52.543Z,6.30
2023-10-06T08:06:21.742Z,6.80
2023-10-06T08:08:50.376Z,6.23
2023-10-06T08:11:21.292Z,6.50
2023-10-06T08:13:51.878Z,5.20
2023-10-06T08:16:20.536Z,6.40
2023-10-06T08:18:50.401Z,6.00
2023-10-06T08:21:19.130Z,7.37
2023-10-06T08:23:47.517Z,6.03
2023-10-06T08:26:15.933Z,6.13
2023-10-06T08:28:44.641Z,7.30
2023-10-06T08:31:16.666Z,6.80
2023-10-06T08:33:46.455Z,6.37
2023-10-06T08:36:16.093Z,6.53
2023-10-06T08:38:47.546Z,6.00
2023-10-06T08:41:17.276Z,5.87
2023-10-06T08:43:48.053Z,6.57
2023-10-06T08:46:17.212Z,7.00
2023-10-06T08:48:46.541Z,6.37
2023-10-06T08:51:17.228Z,6.07
2023-10-06T08:53:50.786Z,6.97
2023-10-06T08:56:20.741Z,5.67
2023-10-06T08:58:48.935Z,5.97
2023-10-06T09:01:20.386Z,5.97
2023-10-06T09:03:50.903Z,4.60
2023-10-06T09:06:20.637Z,5.70
2023-10-06T09:08:51.463Z,5.87
2023-10-06T09:11:22.084Z,5.10
2023-10-06T09:14:08.700Z,7.00
2023-10-06T09:16:50.952Z,6.20
2023-10-06T09:19:20.196Z,6.20
2023-10-06T09:22:05.726Z,6.87
2023-10-06T09:24:33.863Z,5.50
2023-10-06T09:27:20.742Z,5.10
2023-10-06T09:29:49.153Z,4.43
2023-10-06T09:32:23.070Z,4.60
2023-10-06T09:34:54.760Z,5.00
2023-10-06T09:37:25.760Z,4.80
2023-10-06T09:40:16.141Z,4.90
2023-10-06T09:42:47.585Z,5.23
2023-10-06T09:45:20.121Z,4.40
2023-10-06T09:47:55.934Z,5.40
2023-10-06T09:50:25.174Z,5.10
2023-10-06T09:52:55.577Z,4.53
2023-10-06T09:55:24.084Z,5.00
2023-10-06T09:57:52.402Z,5.03
2023-10-06T10:00:22.502Z,4.10
2023-10-06T10:02:52.076Z,4.90
2023-10-06T10:05:21.550Z,5.00
2023-10-06T10:07:50.708Z,4.67
2023-10-06T10:10:23.518Z,4.23
2023-10-06T10:13:21.061Z,4.70
2023-10-06T10:16:03.384Z,4.67
2023-10-06T10:18:37.867Z,4.43
2023-10-06T10:21:10.103Z,4.20
2023-10-06T10:23:41.220Z,4.03
2023-10-06T10:26:24.737Z,4.90
2023-10-06T10:29:30.576Z,4.90
2023-10-06T10:32:12.813Z,4.50
2023-10-06T10:35:09.463Z,4.17
2023-10-06T10:37:59.997Z,3.97
2023-10-06T10:40:31.044Z,4.00
2023-10-06T10:43:07.225Z,3.33
2023-10-06T10:45:38.158Z,4.60
2023-10-06T10:48:07.318Z,3.87
2023-10-06T10:50:58.401Z,4.20
2023-10-06T10:53:31.404Z,4.30
2023-10-06T10:56:01.593Z,3.77
2023-10-06T10:58:56.159Z,3.83
2023-10-06T11:01:31.090Z,4.00
2023-10-06T11:04:22.700Z,4.47
2023-10-06T11:06:52.004Z,3.83
2023-10-06T11:09:31.581Z,3.93
2023-10-06T11:12:22.676Z,3.73
2023-10-06T11:14:52.549Z,4.03
2023-10-06T11:17:22.349Z,4.10
2023-10-06T11:20:04.199Z,2.93
2023-10-06T11:22:34.307Z,3.53
2023-10-06T11:25:07.664Z,3.00
2023-10-06T11:27:39.060Z,3.80
2023-10-06T11:30:15.712Z,4.27
2023-10-06T11:32:44.153Z,3.17
2023-10-06T11:35:13.168Z,3.90
2023-10-06T11:37:42.969Z,3.50
2023-10-06T11:40:13.816Z,3.37
2023-10-06T11:42:45.183Z,3.03
2023-10-06T11:45:29.127Z,3.00
2023-10-06T11:47:59.351Z,3.50
2023-10-06T11:50:29.800Z,2.83
2023-10-06T11:52:58.072Z,2.83
2023-10-06T11:55:36.420Z,2.27
2023-10-06T11:58:07.520Z,3.10
2023-10-06T12:00:44.163Z,2.73
2023-10-06T12:03:13.471Z,2.80
2023-10-06T12:05:56.773Z,2.50
2023-10-06T12:08:26.484Z,2.90
2023-10-06T12:10:55.037Z,2.27
2023-10-06T12:13:24.952Z,2.40
2023-10-06T12:15:54.557Z,2.90
2023-10-06T12:18:24.163Z,2.83
2023-10-06T12:20:52.437Z,3.03
2023-10-06T12:23:20.700Z,2.50
2023-10-06T12:25:49.100Z,2.20
2023-10-06T12:28:17.919Z,2.13
2023-10-06T12:30:46.299Z,2.50
2023-10-06T12:33:16.347Z,2.37
2023-10-06T12:35:44.746Z,2.10
2023-10-06T12:38:15.925Z,2.50
2023-10-06T12:40:48.139Z,2.77
2023-10-06T12:43:17.706Z,2.27
2023-10-06T12:45:46.034Z,2.27
2023-10-06T12:48:15.785Z,2.60
2023-10-06T12:50:44.668Z,2.07
2023-10-06T12:53:13.702Z,2.43
2023-10-06T12:55:44.196Z,2.77
2023-10-06T12:58:17.092Z,2.53
2023-10-06T13:00:45.573Z,2.23
2023-10-06T13:03:18.489Z,2.80
2023-10-06T13:05:48.351Z,2.60
2023-10-06T13:08:22.252Z,3.00
2023-10-06T13:10:51.185Z,2.93
2023-10-06T13:13:19.718Z,2.87
2023-10-06T13:15:48.563Z,2.70
2023-10-06T13:18:19.087Z,2.57
2023-10-06T13:20:47.958Z,2.97
2023-10-06T13:23:16.373Z,2.37
2023-10-06T13:25:47.323Z,3.17
2023-10-06T13:28:19.254Z,2.70
2023-10-06T13:30:48.136Z,2.97
2023-10-06T13:33:19.865Z,2.80
2023-10-06T13:35:49.106Z,2.87
2023-10-06T13:38:17.585Z,3.27
2023-10-06T13:40:46.418Z,2.67
2023-10-06T13:43:15.755Z,3.03
2023-10-06T13:45:46.512Z,3.37
2023-10-06T13:48:17.569Z,3.20
2023-10-06T13:50:47.361Z,2.33
2023-10-06T13:53:16.578Z,2.10
2023-10-06T13:55:45.936Z,2.80
2023-10-06T13:58:14.558Z,2.30
2023-10-06T14:00:43.406Z,3.00
2023-10-06T14:03:16.216Z,2.93
2023-10-06T14:05:52.736Z,2.90
2023-10-06T14:08:21.887Z,2.10
2023-10-06T14:10:51.260Z,2.33
2023-10-06T14:13:24.682Z,2.13
2023-10-06T14:15:56.999Z,2.87
2023-10-06T14:18:27.515Z,2.83
2023-10-06T14:20:58.785Z,3.00
2023-10-06T14:23:32.116Z,3.23
2023-10-06T14:26:02.237Z,2.73
2023-10-06T14:28:31.033Z,2.10
2023-10-06T14:31:10.352Z,3.10
2023-10-06T14:33:41.335Z,2.50
2023-10-06T14:36:25.678Z,2.53
2023-10-06T14:39:11.437Z,2.77
2023-10-06T14:41:56.681Z,2.47
2023-10-06T14:44:42.694Z,2.40
2023-10-06T14:47:11.399Z,2.33
2023-10-06T14:49:44.154Z,2.80
2023-10-06T14:52:14.840Z,2.87
2023-10-06T14:54:44.911Z,3.10
2023-10-06T14:57:14.438Z,2.30
2023-10-06T14:59:45.447Z,2.17
2023-10-06T15:02:14.006Z,2.50
2023-10-06T15:04:42.795Z,2.57
2023-10-06T15:07:15.878Z,2.80
2023-10-06T15:09:45.794Z,2.50
2023-10-06T15:12:15.903Z,1.90
2023-10-06T15:14:45.783Z,2.63
2023-10-06T15:17:15.653Z,3.00
2023-10-06T15:19:47.671Z,2.63
2023-10-06T15:22:16.282Z,2.37
2023-10-06T15:24:45.775Z,2.37
2023-10-06T15:27:14.057Z,2.80
2023-10-06T15:29:42.969Z,3.07
2023-10-06T15:32:12.940Z,3.10
2023-10-06T15:34:41.672Z,2.23
2023-10-06T15:37:09.835Z,2.80
2023-10-06T15:39:38.009Z,3.33
2023-10-06T15:42:09.872Z,2.87
2023-10-06T15:44:38.834Z,2.60
2023-10-06T15:47:09.009Z,2.03
2023-10-06T15:49:38.750Z,2.33
2023-10-06T15:52:06.996Z,2.10
2023-10-06T15:54:35.047Z,2.77
2023-10-06T15:57:03.140Z,2.50
2023-10-06T15:59:35.050Z,2.70
2023-10-06T16:02:03.332Z,2.50
2023-10-06T16:04:31.609Z,2.20
2023-10-06T16:07:00.302Z,2.63
2023-10-06T16:09:28.482Z,2.40
2023-10-06T16:11:58.518Z,2.37
2023-10-06T16:14:26.962Z,2.70
2023-10-06T16:16:56.897Z,2.63
2023-10-06T16:19:25.289Z,2.40
2023-10-06T16:21:56.417Z,2.63
2023-10-06T16:24:24.834Z,2.50
2023-10-06T16:26:53.049Z,2.23
2023-10-06T16:29:22.590Z,2.97
2023-10-06T16:31:51.167Z,2.83
2023-10-06T16:34:21.207Z,2.40
2023-10-06T16:36:53.762Z,2.40
2023-10-06T16:39:23.452Z,2.97
2023-10-06T16:41:51.759Z,2.80
2023-10-06T16:44:22.021Z,2.20
2023-10-06T16:46:50.478Z,2.57
2023-10-06T16:49:20.173Z,2.30
2023-10-06T16:51:49.122Z,2.70
2023-10-06T16:54:17.458Z,2.27
2023-10-06T16:56:45.616Z,2.73
2023-10-06T16:59:15.378Z,2.47
2023-10-06T17:01:44.594Z,2.37
2023-10-06T17:04:16.165Z,2.20
2023-10-06T17:06:46.795Z,2.70
2023-10-06T17:09:19.880Z,2.40
2023-10-06T17:11:49.314Z,2.60
2023-10-06T17:14:17.699Z,2.30
2023-10-06T17:16:46.336Z,2.47
2023-10-06T17:19:16.073Z,2.50
2023-10-06T17:21:45.753Z,2.83
2023-10-06T17:24:19.466Z,2.90
2023-10-06T17:26:47.813Z,2.30
2023-10-06T17:29:16.567Z,2.73
2023-10-06T17:31:45.572Z,2.33
2023-10-06T17:34:17.251Z,2.40
2023-10-06T17:36:47.010Z,2.17
2023-10-06T17:39:15.343Z,3.20
2023-10-06T17:41:43.421Z,3.93
2023-10-06T17:44:12.249Z,2.47
2023-10-06T17:46:40.647Z,2.53
2023-10-06T17:49:09.972Z,2.53
2023-10-06T17:51:38.608Z,3.47
2023-10-06T17:54:10.234Z,3.47
2023-10-06T17:56:39.257Z,2.57
2023-10-06T17:59:10.822Z,2.50
2023-10-06T18:01:39.233Z,3.33
2023-10-06T18:04:07.586Z,3.27
2023-10-06T18:06:35.846Z,2.93
2023-10-06T18:09:05.058Z,3.03
2023-10-06T18:11:34.717Z,3.20
2023-10-06T18:14:03.087Z,3.30
2023-10-06T18:16:31.305Z,3.07
2023-10-06T18:19:02.368Z,3.43
2023-10-06T18:21:34.651Z,2.80
2023-10-06T18:24:04.672Z,4.00
2023-10-06T18:26:34.231Z,2.80
2023-10-06T18:29:03.377Z,3.37
2023-10-06T18:31:32.546Z,2.77
2023-10-06T18:34:00.761Z,3.20
2023-10-06T18:36:31.858Z,4.10
2023-10-06T18:39:00.173Z,2.80
2023-10-06T18:41:28.505Z,3.27
2023-10-06T18:43:58.823Z,3.13
2023-10-06T18:46:27.153Z,3.30
2023-10-06T18:48:55.693Z,3.37
2023-10-06T18:51:23.801Z,3.87
2023-10-06T18:53:53.049Z,3.53
2023-10-06T18:56:21.255Z,4.27
2023-10-06T18:58:49.755Z,3.90
2023-10-06T19:01:19.585Z,4.40
2023-10-06T19:03:47.917Z,3.60
2023-10-06T19:06:18.959Z,4.00
2023-10-06T19:08:51.129Z,4.10
2023-10-06T19:11:20.450Z,4.30
2023-10-06T19:13:49.092Z,4.13
2023-10-06T19:16:21.180Z,4.47
2023-10-06T19:18:51.538Z,5.60
2023-10-06T19:21:24.689Z,5.30
2023-10-06T19:23:52.936Z,4.37
2023-10-06T19:26:25.777Z,4.83
2023-10-06T19:28:55.266Z,5.50
2023-10-06T19:31:24.850Z,5.70
2023-10-06T19:33:53.100Z,5.70
2023-10-06T19:36:21.892Z,4.50
2023-10-06T19:38:51.772Z,5.00
2023-10-06T19:41:22.929Z,5.37
2023-10-06T19:43:51.680Z,4.43
2023-10-06T19:46:20.067Z,4.90
2023-10-06T19:48:54.728Z,6.23
2023-10-06T19:51:22.942Z,5.80
2023-10-06T19:53:51.163Z,6.73
2023-10-06T19:56:19.445Z,6.00
2023-10-06T19:58:47.712Z,6.50
2023-10-06T20:01:20.632Z,6.23
2023-10-06T20:03:50.329Z,6.00
2023-10-06T20:06:18.472Z,6.47
2023-10-06T20:08:48.025Z,6.13
2023-10-06T20:11:18.528Z,6.30
2023-10-06T20:13:46.686Z,6.80
2023-10-06T20:16:17.014Z,6.30
2023-10-06T20:18:46.271Z,7.17
2023-10-06T20:21:18.743Z,7.73
2023-10-06T20:23:51.065Z,6.20
2023-10-06T20:26:19.386Z,6.37
2023-10-06T20:28:47.815Z,6.40
2023-10-06T20:31:16.160Z,7.30
2023-10-06T20:33:44.422Z,8.03
2023-10-06T20:36:12.722Z,6.97
2023-10-06T20:38:42.340Z,7.30
2023-10-06T20:41:10.513Z,6.60
2023-10-06T20:43:39.773Z,6.67
2023-10-06T20:46:09.870Z,6.03
2023-10-06T20:48:38.524Z,6.93
2023-10-06T20:51:07.676Z,6.53
2023-10-06T20:53:37.148Z,6.20
2023-10-06T20:56:07.651Z,7.43
2023-10-06T20:58:35.954Z,6.27
2023-10-06T21:01:07.930Z,6.40
2023-10-06T21:03:36.732Z,5.90
2023-10-06T21:06:05.395Z,6.10
2023-10-06T21:08:33.660Z,5.73
2023-10-06T21:11:02.312Z,6.53
2023-10-06T21:13:32.822Z,6.40
2023-10-06T21:16:01.173Z,7.00
2023-10-06T21:18:29.403Z,5.73
2023-10-06T21:20:57.827Z,6.47
2023-10-06T21:23:28.688Z,6.17
2023-10-06T21:25:56.975Z,5.17
2023-10-06T21:28:25.285Z,5.83
2023-10-06T21:30:54.800Z,5.73
2023-10-06T21:33:23.209Z,5.77
2023-10-06T21:35:51.364Z,5.30
2023-10-06T21:38:19.598Z,5.50
2023-10-06T21:40:48.059Z,5.30
2023-10-06T21:43:16.861Z,5.57
2023-10-06T21:45:44.895Z,4.80
2023-10-06T21:48:16.736Z,6.00
2023-10-06T21:50:48.751Z,5.57
2023-10-06T21:53:17.638Z,4.83
2023-10-06T21:55:45.962Z,4.20
2023-10-06T21:58:14.324Z,4.83
2023-10-06T22:00:45.130Z,4.60
2023-10-06T22:03:15.230Z,4.33
2023-10-06T22:05:43.620Z,4.40
2023-10-06T22:08:12.556Z,4.17
2023-10-06T22:10:41.137Z,3.77
2023-10-06T22:13:09.384Z,3.80
2023-10-06T22:15:38.063Z,4.97
2023-10-06T22:18:07.306Z,4.40
2023-10-06T22:20:37.029Z,4.10
2023-10-06T22:23:06.674Z,3.70
2023-10-06T22:25:38.929Z,4.13
2023-10-06T22:28:08.222Z,3.60
2023-10-06T22:30:38.055Z,3.87
2023-10-06T22:33:07.043Z,4.53
2023-10-06T22:35:37.255Z,4.20
2023-10-06T22:38:06.072Z,4.00
2023-10-06T22:40:34.812Z,4.40
2023-10-06T22:43:03.439Z,4.00
2023-10-06T22:45:31.544Z,3.67
2023-10-06T22:48:01.656Z,3.90
2023-10-06T22:50:29.930Z,4.20
2023-10-06T22:53:00.082Z,3.40
2023-10-06T22:55:28.510Z,4.07
2023-10-06T22:57:57.218Z,3.17
2023-10-06T23:02:59.748Z,3.57
2023-10-06T23:05:28.714Z,3.47
2023-10-06T23:07:57.428Z,4.27
2023-10-06T23:10:28.284Z,3.87
2023-10-06T23:12:56.869Z,3.67
2023-10-06T23:15:29.717Z,4.33
2023-10-06T23:17:58.034Z,3.90
2023-10-06T23:20:26.532Z,3.23
2023-10-06T23:22:57.098Z,4.00
2023-10-06T23:25:37.396Z,4.00
2023-10-06T23:28:08.304Z,3.90
2023-10-06T23:30:36.858Z,3.53
2023-10-06T23:33:05.623Z,4.60
2023-10-06T23:35:35.116Z,3.40
2023-10-06T23:38:08.058Z,3.30
2023-10-06T23:40:43.425Z,3.97
2023-10-06T23:43:12.006Z,4.23
2023-10-06T23:45:40.737Z,3.73
2023-10-06T23:48:12.536Z,3.47
2023-10-06T23:50:52.496Z,3.50
2023-10-06T23:53:24.111Z,3.20
2023-10-06T23:55:54.396Z,3.30
2023-10-06T23:58:23.808Z,3.83
